sensor_id;sensor_type;location;lat;lon;timestamp;pressure;altitude;pressure_sealevel;temperature;humidity
63339;BME280;47485;51.378;-1.342;2022-11-14T00:00:40;99836.92;;;11.16;30.95
63339;BME280;47485;51.378;-1.342;2022-11-14T00:03:07;99830.65;;;9.83;32.38
63339;BME280;47485;51.378;-1.342;2022-11-14T00:05:39;99825.65;;;10.73;30.76
63339;BME280;47485;51.378;-1.342;2022-11-14T00:08:06;99824.07;;;13.15;30.06
63339;BME280;47485;51.378;-1.342;2022-11-14T00:10:34;99822.24;;;10.90;31.48
63339;BME280;47485;51.378;-1.342;2022-11-14T00:13:01;99821.00;;;9.43;31.81
63339;BME280;47485;51.378;-1.342;2022-11-14T00:15:27;99820.35;;;9.38;32.77
63339;BME280;47485;51.378;-1.342;2022-11-14T00:17:54;99815.60;;;9.30;31.95
63339;BME280;47485;51.378;-1.342;2022-11-14T00:20:21;99819.83;;;8.93;32.02
63339;BME280;47485;51.378;-1.342;2022-11-14T00:22:48;99816.17;;;9.06;33.99
63339;BME280;47485;51.378;-1.342;2022-11-14T00:25:15;99812.21;;;8.95;34.07
63339;BME280;47485;51.378;-1.342;2022-11-14T00:27:42;99812.17;;;9.51;33.20
63339;BME280;47485;51.378;-1.342;2022-11-14T00:30:09;99812.66;;;8.11;34.60
63339;BME280;47485;51.378;-1.342;2022-11-14T00:32:36;99809.29;;;7.51;35.01
63339;BME280;47485;51.378;-1.342;2022-11-14T00:35:03;99802.22;;;8.24;34.42
63339;BME280;47485;51.378;-1.342;2022-11-14T00:37:30;99800.24;;;8.75;34.64
63339;BME280;47485;51.378;-1.342;2022-11-14T00:39:56;99802.55;;;8.46;33.94
63339;BME280;47485;51.378;-1.342;2022-11-14T00:42:23;99801.24;;;11.44;32.55
63339;BME280;47485;51.378;-1.342;2022-11-14T00:44:50;99796.85;;;9.02;33.91
63339;BME280;47485;51.378;-1.342;2022-11-14T00:47:17;99797.13;;;10.85;31.68
63339;BME280;47485;51.378;-1.342;2022-11-14T00:49:43;99794.52;;;10.57;32.68
63339;BME280;47485;51.378;-1.342;2022-11-14T00:52:10;99795.18;;;10.19;32.55
63339;BME280;47485;51.378;-1.342;2022-11-14T00:54:38;99794.10;;;11.81;30.19
63339;BME280;47485;51.378;-1.342;2022-11-14T00:57:04;99791.50;;;10.52;31.63
63339;BME280;47485;51.378;-1.342;2022-11-14T00:59:31;99795.95;;;11.00;31.21
63339;BME280;47485;51.378;-1.342;2022-11-14T01:01:58;99797.50;;;11.10;31.33
63339;BME280;47485;51.378;-1.342;2022-11-14T01:04:25;99795.72;;;9.72;32.13
63339;BME280;47485;51.378;-1.342;2022-11-14T01:06:52;99793.33;;;11.55;31.29
63339;BME280;47485;51.378;-1.342;2022-11-14T01:09:18;99792.93;;;11.73;31.47
63339;BME280;47485;51.378;-1.342;2022-11-14T01:11:45;99786.36;;;11.46;30.49
63339;BME280;47485;51.378;-1.342;2022-11-14T01:14:11;99788.05;;;9.53;32.34
63339;BME280;47485;51.378;-1.342;2022-11-14T01:16:39;99786.21;;;12.10;30.87
63339;BME280;47485;51.378;-1.342;2022-11-14T01:19:05;99782.93;;;10.61;30.74
63339;BME280;47485;51.378;-1.342;2022-11-14T01:21:32;99778.43;;;9.84;32.56
63339;BME280;47485;51.378;-1.342;2022-11-14T01:23:59;99777.37;;;11.33;31.04
63339;BME280;47485;51.378;-1.342;2022-11-14T01:26:26;99778.57;;;9.56;32.82
63339;BME280;47485;51.378;-1.342;2022-11-14T01:28:53;99771.37;;;10.37;30.82
63339;BME280;47485;51.378;-1.342;2022-11-14T01:31:22;99768.22;;;12.02;30.29
63339;BME280;47485;51.378;-1.342;2022-11-14T01:33:50;99762.10;;;9.99;31.94
63339;BME280;47485;51.378;-1.342;2022-11-14T01:36:17;99760.31;;;10.88;31.25
63339;BME280;47485;51.378;-1.342;2022-11-14T01:38:45;99763.40;;;11.51;31.46
63339;BME280;47485;51.378;-1.342;2022-11-14T01:41:13;99758.45;;;12.05;31.09
63339;BME280;47485;51.378;-1.342;2022-11-14T01:43:42;99759.16;;;12.81;29.59
63339;BME280;47485;51.378;-1.342;2022-11-14T01:46:12;99761.33;;;11.76;29.53
63339;BME280;47485;51.378;-1.342;2022-11-14T01:48:43;99764.04;;;8.24;31.98
63339;BME280;47485;51.378;-1.342;2022-11-14T01:51:17;99756.02;;;10.64;30.43
63339;BME280;47485;51.378;-1.342;2022-11-14T01:53:46;99751.10;;;12.66;29.67
63339;BME280;47485;51.378;-1.342;2022-11-14T01:56:17;99753.14;;;12.26;29.51
63339;BME280;47485;51.378;-1.342;2022-11-14T01:58:49;99747.25;;;11.05;30.55
63339;BME280;47485;51.378;-1.342;2022-11-14T02:01:16;99740.55;;;11.56;30.53
63339;BME280;47485;51.378;-1.342;2022-11-14T02:03:46;99736.96;;;11.64;30.44
63339;BME280;47485;51.378;-1.342;2022-11-14T02:06:19;99731.84;;;12.47;30.19
63339;BME280;47485;51.378;-1.342;2022-11-14T02:08:47;99726.50;;;11.47;30.27
63339;BME280;47485;51.378;-1.342;2022-11-14T02:11:15;99714.15;;;13.82;29.21
63339;BME280;47485;51.378;-1.342;2022-11-14T02:13:42;99705.39;;;13.31;29.25
63339;BME280;47485;51.378;-1.342;2022-11-14T02:16:09;99702.20;;;13.31;29.23
63339;BME280;47485;51.378;-1.342;2022-11-14T02:18:35;99697.27;;;12.55;29.48
63339;BME280;47485;51.378;-1.342;2022-11-14T02:21:02;99694.94;;;12.80;29.25
63339;BME280;47485;51.378;-1.342;2022-11-14T02:23:30;99692.79;;;10.84;29.97
63339;BME280;47485;51.378;-1.342;2022-11-14T02:25:58;99691.77;;;12.05;30.34
63339;BME280;47485;51.378;-1.342;2022-11-14T02:28:26;99691.96;;;11.59;30.31
63339;BME280;47485;51.378;-1.342;2022-11-14T02:30:53;99692.89;;;12.25;29.36
63339;BME280;47485;51.378;-1.342;2022-11-14T02:33:20;99696.44;;;10.57;30.20
63339;BME280;47485;51.378;-1.342;2022-11-14T02:35:46;99690.18;;;13.11;29.87
63339;BME280;47485;51.378;-1.342;2022-11-14T02:38:13;99686.37;;;14.79;27.97
63339;BME280;47485;51.378;-1.342;2022-11-14T02:40:40;99677.81;;;14.47;27.95
63339;BME280;47485;51.378;-1.342;2022-11-14T02:43:07;99673.60;;;13.39;28.88
63339;BME280;47485;51.378;-1.342;2022-11-14T02:45:33;99669.73;;;13.49;29.91
63339;BME280;47485;51.378;-1.342;2022-11-14T02:48:00;99662.16;;;11.72;30.17
63339;BME280;47485;51.378;-1.342;2022-11-14T02:50:27;99656.51;;;11.90;30.11
63339;BME280;47485;51.378;-1.342;2022-11-14T02:52:54;99649.52;;;11.85;29.80
63339;BME280;47485;51.378;-1.342;2022-11-14T02:55:21;99640.40;;;12.67;29.24
63339;BME280;47485;51.378;-1.342;2022-11-14T02:57:47;99634.56;;;12.84;29.41
63339;BME280;47485;51.378;-1.342;2022-11-14T03:00:15;99629.28;;;13.62;28.86
63339;BME280;47485;51.378;-1.342;2022-11-14T03:02:42;99622.13;;;12.87;29.36
63339;BME280;47485;51.378;-1.342;2022-11-14T03:05:08;99622.20;;;13.18;28.76
63339;BME280;47485;51.378;-1.342;2022-11-14T03:07:36;99626.13;;;12.52;28.91
63339;BME280;47485;51.378;-1.342;2022-11-14T03:10:03;99626.04;;;12.77;29.13
63339;BME280;47485;51.378;-1.342;2022-11-14T03:12:31;99626.28;;;12.19;29.45
63339;BME280;47485;51.378;-1.342;2022-11-14T03:14:58;99624.06;;;11.53;29.13
63339;BME280;47485;51.378;-1.342;2022-11-14T03:17:29;99622.39;;;12.89;29.32
63339;BME280;47485;51.378;-1.342;2022-11-14T03:19:56;99623.51;;;12.79;29.07
63339;BME280;47485;51.378;-1.342;2022-11-14T03:22:23;99624.68;;;12.67;28.79
63339;BME280;47485;51.378;-1.342;2022-11-14T03:24:49;99629.34;;;13.27;28.73
63339;BME280;47485;51.378;-1.342;2022-11-14T03:27:17;99632.09;;;13.24;28.76
63339;BME280;47485;51.378;-1.342;2022-11-14T03:29:44;99636.53;;;13.56;28.52
63339;BME280;47485;51.378;-1.342;2022-11-14T03:32:10;99641.94;;;11.62;29.13
63339;BME280;47485;51.378;-1.342;2022-11-14T03:34:38;99642.73;;;12.55;29.23
63339;BME280;47485;51.378;-1.342;2022-11-14T03:37:05;99637.58;;;13.11;29.23
63339;BME280;47485;51.378;-1.342;2022-11-14T03:39:32;99632.60;;;11.87;29.81
63339;BME280;47485;51.378;-1.342;2022-11-14T03:41:58;99628.01;;;12.76;29.15
63339;BME280;47485;51.378;-1.342;2022-11-14T03:44:25;99625.40;;;12.37;29.07
63339;BME280;47485;51.378;-1.342;2022-11-14T03:46:52;99620.84;;;13.09;28.99
63339;BME280;47485;51.378;-1.342;2022-11-14T03:49:18;99620.15;;;12.94;29.16
63339;BME280;47485;51.378;-1.342;2022-11-14T03:51:46;99624.99;;;12.97;29.16
63339;BME280;47485;51.378;-1.342;2022-11-14T03:54:13;99628.62;;;13.01;29.18
63339;BME280;47485;51.378;-1.342;2022-11-14T03:56:40;99627.01;;;13.65;29.12
63339;BME280;47485;51.378;-1.342;2022-11-14T03:59:06;99625.63;;;12.84;28.90
63339;BME280;47485;51.378;-1.342;2022-11-14T04:01:33;99622.80;;;11.04;29.84
63339;BME280;47485;51.378;-1.342;2022-11-14T04:04:00;99625.05;;;11.73;30.18
63339;BME280;47485;51.378;-1.342;2022-11-14T04:06:27;99625.48;;;11.95;29.29
63339;BME280;47485;51.378;-1.342;2022-11-14T04:08:54;99625.81;;;13.96;29.02
63339;BME280;47485;51.378;-1.342;2022-11-14T04:11:21;99621.71;;;11.71;29.95
63339;BME280;47485;51.378;-1.342;2022-11-14T04:13:47;99624.14;;;12.73;29.22
63339;BME280;47485;51.378;-1.342;2022-11-14T04:16:15;99626.57;;;13.33;29.22
63339;BME280;47485;51.378;-1.342;2022-11-14T04:18:41;99622.58;;;13.43;29.15
63339;BME280;47485;51.378;-1.342;2022-11-14T04:21:08;99622.97;;;12.39;29.20
63339;BME280;47485;51.378;-1.342;2022-11-14T04:23:35;99624.69;;;12.18;30.22
63339;BME280;47485;51.378;-1.342;2022-11-14T04:26:02;99619.77;;;12.64;29.91
63339;BME280;47485;51.378;-1.342;2022-11-14T04:28:29;99615.87;;;10.98;30.42
63339;BME280;47485;51.378;-1.342;2022-11-14T04:30:55;99609.21;;;12.70;29.87
63339;BME280;47485;51.378;-1.342;2022-11-14T04:33:23;99603.58;;;11.94;29.35
63339;BME280;47485;51.378;-1.342;2022-11-14T04:35:49;99600.29;;;13.46;29.42
63339;BME280;47485;51.378;-1.342;2022-11-14T04:38:16;99595.25;;;13.49;28.95
63339;BME280;47485;51.378;-1.342;2022-11-14T04:40:48;99593.87;;;13.36;29.10
63339;BME280;47485;51.378;-1.342;2022-11-14T04:43:16;99587.23;;;13.37;28.66
63339;BME280;47485;51.378;-1.342;2022-11-14T04:45:43;99584.24;;;12.98;29.02
63339;BME280;47485;51.378;-1.342;2022-11-14T04:48:10;99582.80;;;12.69;29.26
63339;BME280;47485;51.378;-1.342;2022-11-14T04:50:38;99579.95;;;13.53;29.05
63339;BME280;47485;51.378;-1.342;2022-11-14T04:53:05;99570.42;;;13.00;29.01
63339;BME280;47485;51.378;-1.342;2022-11-14T04:55:32;99560.71;;;13.10;29.38
63339;BME280;47485;51.378;-1.342;2022-11-14T04:57:58;99572.90;;;13.63;28.99
63339;BME280;47485;51.378;-1.342;2022-11-14T05:00:25;99573.98;;;12.55;29.06
63339;BME280;47485;51.378;-1.342;2022-11-14T05:02:52;99569.97;;;13.41;28.86
63339;BME280;47485;51.378;-1.342;2022-11-14T05:05:19;99568.76;;;13.61;28.69
63339;BME280;47485;51.378;-1.342;2022-11-14T05:07:45;99563.78;;;14.67;28.69
63339;BME280;47485;51.378;-1.342;2022-11-14T05:10:13;99566.01;;;13.39;28.87
63339;BME280;47485;51.378;-1.342;2022-11-14T05:12:40;99565.32;;;13.02;29.12
63339;BME280;47485;51.378;-1.342;2022-11-14T05:15:07;99564.77;;;13.88;29.31
63339;BME280;47485;51.378;-1.342;2022-11-14T05:17:35;99575.86;;;14.04;29.11
63339;BME280;47485;51.378;-1.342;2022-11-14T05:20:02;99574.41;;;13.67;29.06
63339;BME280;47485;51.378;-1.342;2022-11-14T05:22:29;99576.47;;;13.75;29.01
63339;BME280;47485;51.378;-1.342;2022-11-14T05:24:56;99569.81;;;13.21;29.39
63339;BME280;47485;51.378;-1.342;2022-11-14T05:27:23;99567.58;;;13.96;28.84
63339;BME280;47485;51.378;-1.342;2022-11-14T05:29:49;99570.96;;;13.72;28.95
63339;BME280;47485;51.378;-1.342;2022-11-14T05:32:16;99575.17;;;13.60;28.71
63339;BME280;47485;51.378;-1.342;2022-11-14T05:34:44;99576.84;;;14.15;28.66
63339;BME280;47485;51.378;-1.342;2022-11-14T05:37:10;99571.46;;;13.24;28.97
63339;BME280;47485;51.378;-1.342;2022-11-14T05:39:38;99571.35;;;13.21;28.97
63339;BME280;47485;51.378;-1.342;2022-11-14T05:42:06;99581.73;;;13.26;28.91
63339;BME280;47485;51.378;-1.342;2022-11-14T05:44:32;99575.64;;;12.04;30.77
63339;BME280;47485;51.378;-1.342;2022-11-14T05:46:59;99564.77;;;10.90;32.07
63339;BME280;47485;51.378;-1.342;2022-11-14T05:49:26;99554.53;;;11.86;31.84
63339;BME280;47485;51.378;-1.342;2022-11-14T05:51:53;99538.16;;;12.27;30.74
63339;BME280;47485;51.378;-1.342;2022-11-14T05:54:20;99538.26;;;12.68;30.01
63339;BME280;47485;51.378;-1.342;2022-11-14T05:56:46;99535.76;;;13.33;30.32
63339;BME280;47485;51.378;-1.342;2022-11-14T05:59:13;99532.29;;;13.21;29.55
63339;BME280;47485;51.378;-1.342;2022-11-14T06:01:40;99531.67;;;13.50;29.29
63339;BME280;47485;51.378;-1.342;2022-11-14T06:04:07;99534.00;;;13.88;29.43
63339;BME280;47485;51.378;-1.342;2022-11-14T06:06:34;99541.57;;;13.49;29.36
63339;BME280;47485;51.378;-1.342;2022-11-14T06:09:00;99542.39;;;12.84;30.31
63339;BME280;47485;51.378;-1.342;2022-11-14T06:11:27;99546.16;;;13.52;29.82
63339;BME280;47485;51.378;-1.342;2022-11-14T06:13:53;99540.12;;;13.46;29.41
63339;BME280;47485;51.378;-1.342;2022-11-14T06:16:20;99532.52;;;12.43;30.31
63339;BME280;47485;51.378;-1.342;2022-11-14T06:18:47;99547.55;;;10.24;32.06
63339;BME280;47485;51.378;-1.342;2022-11-14T06:21:15;99539.22;;;12.24;30.44
63339;BME280;47485;51.378;-1.342;2022-11-14T06:23:43;99537.08;;;12.57;29.82
63339;BME280;47485;51.378;-1.342;2022-11-14T06:26:18;99535.06;;;14.37;29.57
63339;BME280;47485;51.378;-1.342;2022-11-14T06:28:45;99539.75;;;13.70;29.77
63339;BME280;47485;51.378;-1.342;2022-11-14T06:31:12;99536.14;;;12.83;30.05
63339;BME280;47485;51.378;-1.342;2022-11-14T06:33:39;99536.10;;;13.62;30.19
63339;BME280;47485;51.378;-1.342;2022-11-14T06:36:07;99537.32;;;13.73;29.72
63339;BME280;47485;51.378;-1.342;2022-11-14T06:38:35;99539.56;;;12.56;29.82
63339;BME280;47485;51.378;-1.342;2022-11-14T06:41:04;99538.48;;;13.00;29.92
63339;BME280;47485;51.378;-1.342;2022-11-14T06:43:31;99543.40;;;14.18;29.40
63339;BME280;47485;51.378;-1.342;2022-11-14T06:45:59;99548.02;;;12.97;29.96
63339;BME280;47485;51.378;-1.342;2022-11-14T06:48:25;99544.11;;;11.82;30.00
63339;BME280;47485;51.378;-1.342;2022-11-14T06:50:53;99539.46;;;13.10;29.78
63339;BME280;47485;51.378;-1.342;2022-11-14T06:53:20;99542.54;;;12.54;30.31
63339;BME280;47485;51.378;-1.342;2022-11-14T06:55:55;99541.93;;;12.50;30.67
63339;BME280;47485;51.378;-1.342;2022-11-14T06:58:25;99539.68;;;12.06;30.63
63339;BME280;47485;51.378;-1.342;2022-11-14T07:00:52;99537.68;;;11.32;31.68
63339;BME280;47485;51.378;-1.342;2022-11-14T07:03:19;99533.43;;;11.43;31.73
63339;BME280;47485;51.378;-1.342;2022-11-14T07:05:46;99532.99;;;12.13;31.56
63339;BME280;47485;51.378;-1.342;2022-11-14T07:08:14;99530.82;;;12.06;30.80
63339;BME280;47485;51.378;-1.342;2022-11-14T07:10:41;99530.37;;;10.90;32.16
63339;BME280;47485;51.378;-1.342;2022-11-14T07:13:08;99530.37;;;11.52;30.88
63339;BME280;47485;51.378;-1.342;2022-11-14T07:15:34;99527.42;;;12.28;30.70
63339;BME280;47485;51.378;-1.342;2022-11-14T07:18:00;99529.76;;;11.79;31.09
63339;BME280;47485;51.378;-1.342;2022-11-14T07:20:28;99530.37;;;12.67;30.87
63339;BME280;47485;51.378;-1.342;2022-11-14T07:22:54;99527.87;;;10.77;31.50
63339;BME280;47485;51.378;-1.342;2022-11-14T07:25:21;99523.47;;;12.75;30.81
63339;BME280;47485;51.378;-1.342;2022-11-14T07:27:48;99520.73;;;11.71;31.62
63339;BME280;47485;51.378;-1.342;2022-11-14T07:30:15;99519.72;;;11.37;31.55
63339;BME280;47485;51.378;-1.342;2022-11-14T07:32:42;99526.11;;;12.71;30.44
63339;BME280;47485;51.378;-1.342;2022-11-14T07:35:09;99532.38;;;10.98;31.35
63339;BME280;47485;51.378;-1.342;2022-11-14T07:37:35;99531.90;;;13.00;30.22
63339;BME280;47485;51.378;-1.342;2022-11-14T07:40:03;99529.67;;;13.02;30.24
63339;BME280;47485;51.378;-1.342;2022-11-14T07:42:29;99527.30;;;14.34;30.05
63339;BME280;47485;51.378;-1.342;2022-11-14T07:44:57;99535.30;;;12.47;31.52
63339;BME280;47485;51.378;-1.342;2022-11-14T07:47:26;99538.01;;;11.60;32.21
63339;BME280;47485;51.378;-1.342;2022-11-14T07:49:53;99538.48;;;12.45;30.79
63339;BME280;47485;51.378;-1.342;2022-11-14T07:52:20;99545.74;;;14.00;30.37
63339;BME280;47485;51.378;-1.342;2022-11-14T07:54:47;99548.54;;;13.94;30.04
63339;BME280;47485;51.378;-1.342;2022-11-14T07:57:14;99545.65;;;13.29;30.05
63339;BME280;47485;51.378;-1.342;2022-11-14T07:59:40;99546.23;;;13.88;30.88
63339;BME280;47485;51.378;-1.342;2022-11-14T08:02:11;99542.68;;;14.35;30.07
63339;BME280;47485;51.378;-1.342;2022-11-14T08:04:39;99545.52;;;13.36;30.01
63339;BME280;47485;51.378;-1.342;2022-11-14T08:07:06;99545.59;;;13.08;29.86
63339;BME280;47485;51.378;-1.342;2022-11-14T08:09:32;99542.66;;;13.67;29.75
63339;BME280;47485;51.378;-1.342;2022-11-14T08:11:59;99542.15;;;13.49;29.55
63339;BME280;47485;51.378;-1.342;2022-11-14T08:14:26;99541.80;;;13.74;29.41
63339;BME280;47485;51.378;-1.342;2022-11-14T08:16:53;99544.20;;;13.73;29.40
63339;BME280;47485;51.378;-1.342;2022-11-14T08:19:20;99545.19;;;14.52;29.22
63339;BME280;47485;51.378;-1.342;2022-11-14T08:21:46;99546.68;;;14.11;29.49
63339;BME280;47485;51.378;-1.342;2022-11-14T08:24:13;99543.39;;;13.55;29.55
63339;BME280;47485;51.378;-1.342;2022-11-14T08:26:40;99543.12;;;12.58;29.94
63339;BME280;47485;51.378;-1.342;2022-11-14T08:29:07;99540.90;;;13.25;29.47
63339;BME280;47485;51.378;-1.342;2022-11-14T08:31:34;99534.66;;;14.46;29.34
63339;BME280;47485;51.378;-1.342;2022-11-14T08:34:00;99536.55;;;14.86;29.08
63339;BME280;47485;51.378;-1.342;2022-11-14T08:36:27;99524.47;;;13.90;29.45
63339;BME280;47485;51.378;-1.342;2022-11-14T08:38:54;99514.70;;;13.78;29.54
63339;BME280;47485;51.378;-1.342;2022-11-14T08:41:21;99508.44;;;13.66;29.63
63339;BME280;47485;51.378;-1.342;2022-11-14T08:43:48;99506.31;;;13.85;29.50
63339;BME280;47485;51.378;-1.342;2022-11-14T08:46:15;99501.24;;;14.14;29.29
63339;BME280;47485;51.378;-1.342;2022-11-14T08:48:42;99500.94;;;13.22;29.29
63339;BME280;47485;51.378;-1.342;2022-11-14T08:51:09;99493.06;;;12.22;30.36
63339;BME280;47485;51.378;-1.342;2022-11-14T08:53:36;99498.58;;;13.27;29.65
63339;BME280;47485;51.378;-1.342;2022-11-14T08:56:03;99499.11;;;13.75;29.76
63339;BME280;47485;51.378;-1.342;2022-11-14T08:58:30;99488.38;;;13.27;29.70
63339;BME280;47485;51.378;-1.342;2022-11-14T09:00:59;99484.22;;;13.42;29.98
63339;BME280;47485;51.378;-1.342;2022-11-14T09:03:26;99486.89;;;12.49;29.55
63339;BME280;47485;51.378;-1.342;2022-11-14T09:05:53;99489.15;;;13.13;29.77
63339;BME280;47485;51.378;-1.342;2022-11-14T09:08:20;99487.87;;;15.15;29.02
63339;BME280;47485;51.378;-1.342;2022-11-14T09:10:47;99485.60;;;14.29;29.39
63339;BME280;47485;51.378;-1.342;2022-11-14T09:13:14;99481.31;;;14.23;29.49
63339;BME280;47485;51.378;-1.342;2022-11-14T09:15:42;99480.55;;;14.39;28.96
63339;BME280;47485;51.378;-1.342;2022-11-14T09:18:09;99479.16;;;13.31;29.51
63339;BME280;47485;51.378;-1.342;2022-11-14T09:20:37;99482.50;;;14.01;28.95
63339;BME280;47485;51.378;-1.342;2022-11-14T09:23:04;99471.65;;;14.46;29.38
63339;BME280;47485;51.378;-1.342;2022-11-14T09:25:31;99466.30;;;13.86;29.48
63339;BME280;47485;51.378;-1.342;2022-11-14T09:28:03;99466.51;;;13.30;30.27
63339;BME280;47485;51.378;-1.342;2022-11-14T09:30:30;99463.89;;;12.86;31.15
63339;BME280;47485;51.378;-1.342;2022-11-14T09:32:58;99462.50;;;12.76;30.27
63339;BME280;47485;51.378;-1.342;2022-11-14T09:35:26;99461.27;;;13.80;30.72
63339;BME280;47485;51.378;-1.342;2022-11-14T09:37:58;99464.32;;;13.20;30.00
63339;BME280;47485;51.378;-1.342;2022-11-14T09:40:26;99468.20;;;14.12;30.06
63339;BME280;47485;51.378;-1.342;2022-11-14T09:43:03;99469.71;;;13.92;29.78
63339;BME280;47485;51.378;-1.342;2022-11-14T09:45:32;99467.73;;;12.62;30.39
63339;BME280;47485;51.378;-1.342;2022-11-14T09:48:05;99466.63;;;12.67;30.74
63339;BME280;47485;51.378;-1.342;2022-11-14T09:50:36;99467.03;;;13.70;30.80
63339;BME280;47485;51.378;-1.342;2022-11-14T09:53:10;99464.64;;;15.43;29.40
63339;BME280;47485;51.378;-1.342;2022-11-14T09:55:43;99460.17;;;15.39;29.88
63339;BME280;47485;51.378;-1.342;2022-11-14T09:58:14;99472.61;;;14.19;30.56
63339;BME280;47485;51.378;-1.342;2022-11-14T10:00:49;99473.66;;;13.89;29.68
63339;BME280;47485;51.378;-1.342;2022-11-14T10:03:23;99463.63;;;14.20;30.21
63339;BME280;47485;51.378;-1.342;2022-11-14T10:06:06;99467.41;;;14.60;29.87
63339;BME280;47485;51.378;-1.342;2022-11-14T10:08:46;99464.58;;;14.83;30.84
63339;BME280;47485;51.378;-1.342;2022-11-14T10:11:21;99460.50;;;15.30;30.47
63339;BME280;47485;51.378;-1.342;2022-11-14T10:14:03;99464.04;;;12.54;33.64
63339;BME280;47485;51.378;-1.342;2022-11-14T10:16:41;99461.92;;;11.55;34.26
63339;BME280;47485;51.378;-1.342;2022-11-14T10:19:19;99464.18;;;13.32;32.94
63339;BME280;47485;51.378;-1.342;2022-11-14T10:21:57;99459.11;;;14.51;32.70
63339;BME280;47485;51.378;-1.342;2022-11-14T10:24:45;99452.31;;;11.65;35.04
63339;BME280;47485;51.378;-1.342;2022-11-14T10:27:18;99447.52;;;15.01;32.67
63339;BME280;47485;51.378;-1.342;2022-11-14T10:29:56;99451.75;;;11.39;34.99
63339;BME280;47485;51.378;-1.342;2022-11-14T10:32:41;99453.21;;;14.18;33.03
63339;BME280;47485;51.378;-1.342;2022-11-14T10:35:13;99446.57;;;13.62;33.49
63339;BME280;47485;51.378;-1.342;2022-11-14T10:37:56;99442.72;;;14.37;33.15
63339;BME280;47485;51.378;-1.342;2022-11-14T10:40:29;99439.79;;;14.29;33.21
63339;BME280;47485;51.378;-1.342;2022-11-14T10:43:04;99436.28;;;12.55;34.83
63339;BME280;47485;51.378;-1.342;2022-11-14T10:45:36;99435.17;;;11.91;34.91
63339;BME280;47485;51.378;-1.342;2022-11-14T10:48:09;99438.77;;;6.34;40.47
63339;BME280;47485;51.378;-1.342;2022-11-14T10:50:41;99432.23;;;12.15;35.85
63339;BME280;47485;51.378;-1.342;2022-11-14T10:53:17;99435.03;;;14.22;33.85
63339;BME280;47485;51.378;-1.342;2022-11-14T10:55:49;99432.35;;;12.96;34.19
63339;BME280;47485;51.378;-1.342;2022-11-14T10:58:16;99432.80;;;13.20;34.24
63339;BME280;47485;51.378;-1.342;2022-11-14T11:00:43;99429.22;;;14.35;32.69
63339;BME280;47485;51.378;-1.342;2022-11-14T11:03:10;99428.81;;;12.93;33.78
63339;BME280;47485;51.378;-1.342;2022-11-14T11:05:46;99419.66;;;13.73;33.08
63339;BME280;47485;51.378;-1.342;2022-11-14T11:08:18;99416.88;;;12.88;33.49
63339;BME280;47485;51.378;-1.342;2022-11-14T11:10:46;99417.60;;;15.56;30.90
63339;BME280;47485;51.378;-1.342;2022-11-14T11:13:28;99419.35;;;15.39;31.25
63339;BME280;47485;51.378;-1.342;2022-11-14T11:15:57;99417.70;;;16.16;30.75
63339;BME280;47485;51.378;-1.342;2022-11-14T11:18:27;99415.64;;;14.56;31.82
63339;BME280;47485;51.378;-1.342;2022-11-14T11:21:12;99411.75;;;14.53;31.99
63339;BME280;47485;51.378;-1.342;2022-11-14T11:23:48;99412.40;;;15.87;31.02
63339;BME280;47485;51.378;-1.342;2022-11-14T11:26:18;99414.31;;;15.28;31.13
63339;BME280;47485;51.378;-1.342;2022-11-14T11:29:01;99413.29;;;16.45;29.69
63339;BME280;47485;51.378;-1.342;2022-11-14T11:31:48;99412.71;;;15.64;30.49
63339;BME280;47485;51.378;-1.342;2022-11-14T11:34:18;99407.81;;;18.02;28.18
63339;BME280;47485;51.378;-1.342;2022-11-14T11:36:52;99407.52;;;15.54;30.14
63339;BME280;47485;51.378;-1.342;2022-11-14T11:39:24;99409.93;;;14.19;30.88
63339;BME280;47485;51.378;-1.342;2022-11-14T11:41:54;99405.60;;;15.87;29.99
63339;BME280;47485;51.378;-1.342;2022-11-14T11:44:24;99403.78;;;15.01;29.69
63339;BME280;47485;51.378;-1.342;2022-11-14T11:46:59;99404.98;;;13.61;30.71
63339;BME280;47485;51.378;-1.342;2022-11-14T11:49:37;99393.04;;;15.58;29.33
63339;BME280;47485;51.378;-1.342;2022-11-14T11:52:12;99392.67;;;14.15;31.32
63339;BME280;47485;51.378;-1.342;2022-11-14T11:54:50;99383.42;;;17.05;29.20
63339;BME280;47485;51.378;-1.342;2022-11-14T11:57:23;99383.19;;;16.39;29.12
63339;BME280;47485;51.378;-1.342;2022-11-14T12:00:00;99380.81;;;16.19;29.45
63339;BME280;47485;51.378;-1.342;2022-11-14T12:02:29;99380.56;;;17.13;29.71
63339;BME280;47485;51.378;-1.342;2022-11-14T12:04:56;99383.38;;;13.85;31.69
63339;BME280;47485;51.378;-1.342;2022-11-14T12:07:32;99382.09;;;14.70;30.60
63339;BME280;47485;51.378;-1.342;2022-11-14T12:10:10;99378.93;;;14.99;29.72
63339;BME280;47485;51.378;-1.342;2022-11-14T12:12:58;99378.29;;;15.96;30.12
63339;BME280;47485;51.378;-1.342;2022-11-14T12:15:41;99380.74;;;15.75;30.98
63339;BME280;47485;51.378;-1.342;2022-11-14T12:18:20;99374.68;;;16.54;29.43
63339;BME280;47485;51.378;-1.342;2022-11-14T12:21:04;99377.07;;;15.65;30.71
63339;BME280;47485;51.378;-1.342;2022-11-14T12:24:18;99376.98;;;15.44;31.52
63339;BME280;47485;51.378;-1.342;2022-11-14T12:26:57;99368.84;;;14.94;31.24
63339;BME280;47485;51.378;-1.342;2022-11-14T12:29:43;99362.89;;;15.87;31.02
63339;BME280;47485;51.378;-1.342;2022-11-14T12:32:27;99363.34;;;12.26;32.72
63339;BME280;47485;51.378;-1.342;2022-11-14T12:34:56;99357.78;;;15.10;31.22
63339;BME280;47485;51.378;-1.342;2022-11-14T12:37:30;99351.94;;;13.76;30.81
63339;BME280;47485;51.378;-1.342;2022-11-14T12:40:01;99350.51;;;15.13;30.53
63339;BME280;47485;51.378;-1.342;2022-11-14T12:42:30;99348.54;;;13.15;31.39
63339;BME280;47485;51.378;-1.342;2022-11-14T12:44:57;99341.10;;;14.23;31.76
63339;BME280;47485;51.378;-1.342;2022-11-14T12:47:24;99331.14;;;13.35;32.11
63339;BME280;47485;51.378;-1.342;2022-11-14T12:50:02;99324.55;;;14.98;31.60
63339;BME280;47485;51.378;-1.342;2022-11-14T12:52:47;99319.97;;;14.38;31.21
63339;BME280;47485;51.378;-1.342;2022-11-14T12:57:27;99315.48;;;13.16;32.16
63339;BME280;47485;51.378;-1.342;2022-11-14T13:00:03;99309.58;;;14.17;30.94
63339;BME280;47485;51.378;-1.342;2022-11-14T13:03:18;99307.91;;;13.42;32.24